Time;durP1;ratioP1;P1;durP2;ratioP2;P2;SDS_P1;SDS_P2;PMS_P1;PMS_P2;Temp;Humidity;BMP_temperature;BMP_pressure;BME280_temperature;BME280_humidity;BME280_pressure;Samples;Min_cycle;Max_cycle;Signal;HPM_P1;HPM_P2
2021/11/21 00:00:27;;;;;;;18.37;12.00;;;;;;;8.28;61.78;100088.91;4483723;32;33447;-54
2021/11/21 00:02:55;;;;;;;22.23;11.52;;;;;;;8.30;61.82;100075.97;4485501;32;33890;-50
2021/11/21 00:05:22;;;;;;;18.75;11.43;;;;;;;8.06;62.13;100074.75;4485544;32;35572;-51
2021/11/21 00:07:50;;;;;;;19.75;12.05;;;;;;;8.13;62.29;100067.94;4485397;32;35166;-52
2021/11/21 00:10:17;;;;;;;18.25;12.02;;;;;;;8.20;62.34;100072.38;4471233;32;33054;-48
2021/11/21 00:12:45;;;;;;;17.40;11.50;;;;;;;8.12;62.83;100067.09;4485483;32;34968;-49
2021/11/21 00:15:12;;;;;;;19.37;11.98;;;;;;;8.10;62.99;100068.78;4485714;32;34941;-51
2021/11/21 00:17:40;;;;;;;17.00;11.25;;;;;;;8.17;62.91;100064.56;4485452;32;34910;-49
2021/11/21 00:20:16;;;;;;;19.62;12.30;;;;;;;8.07;63.10;100073.91;4471399;32;34371;-53
2021/11/21 00:22:45;;;;;;;17.33;11.27;;;;;;;8.12;63.10;100066.22;4485413;32;33696;-53
2021/11/21 00:25:13;;;;;;;18.98;11.43;;;;;;;8.16;62.95;100058.50;4485281;32;36089;-53
2021/11/21 00:27:41;;;;;;;19.80;12.07;;;;;;;8.26;62.71;100056.94;4485343;32;34128;-51
2021/11/21 00:30:08;;;;;;;19.37;12.50;;;;;;;8.31;62.53;100060.47;4485341;32;33349;-50
2021/11/21 00:32:36;;;;;;;22.95;12.30;;;;;;;8.20;62.84;100059.44;4485551;32;34733;-53
2021/11/21 00:35:04;;;;;;;21.48;11.98;;;;;;;8.03;63.41;100053.97;4485438;32;35797;-51
2021/11/21 00:37:31;;;;;;;21.83;12.35;;;;;;;8.20;63.21;100054.25;4485285;32;34989;-49
2021/11/21 00:39:59;;;;;;;19.35;12.50;;;;;;;8.06;63.69;100053.16;4485243;32;33338;-53
2021/11/21 00:42:27;;;;;;;19.33;12.70;;;;;;;8.11;63.82;100048.91;4485271;32;34021;-50
2021/11/21 00:44:54;;;;;;;22.00;12.95;;;;;;;8.08;64.21;100056.66;4485222;32;35070;-53
2021/11/21 00:47:22;;;;;;;18.58;12.10;;;;;;;8.32;63.73;100051.81;4485238;32;34214;-52
2021/11/21 00:49:49;;;;;;;17.65;11.93;;;;;;;8.31;63.68;100052.69;4470893;32;33619;-51
2021/11/21 00:52:17;;;;;;;17.10;11.48;;;;;;;8.14;63.91;100048.97;4485211;32;34738;-54
2021/11/21 00:57:12;;;;;;;19.90;12.95;;;;;;;8.15;63.80;100041.19;4485212;32;34443;-55
2021/11/21 00:59:40;;;;;;;19.23;12.60;;;;;;;8.16;63.98;100047.25;4470927;32;33383;-51
2021/11/21 01:02:11;;;;;;;18.62;12.27;;;;;;;8.24;63.75;100050.84;4485090;32;34692;-53
2021/11/21 01:04:41;;;;;;;18.52;11.95;;;;;;;8.15;63.81;100037.75;4485114;32;35434;-49
2021/11/21 01:07:11;;;;;;;19.80;12.88;;;;;;;8.24;63.43;100044.78;4485331;32;35232;-54
2021/11/21 01:09:39;;;;;;;17.85;11.50;;;;;;;8.34;63.21;100041.50;4485217;32;33504;-54
2021/11/21 01:12:08;;;;;;;20.25;11.43;;;;;;;8.49;62.59;100039.06;4484857;32;34279;-53
2021/11/21 01:14:37;;;;;;;19.55;12.00;;;;;;;8.34;62.81;100044.09;4470712;32;34745;-53
2021/11/21 01:17:06;;;;;;;18.65;11.95;;;;;;;8.05;63.23;100039.34;4485223;32;34355;-50
2021/11/21 01:19:34;;;;;;;16.48;11.38;;;;;;;8.17;63.02;100036.06;4484959;32;33262;-55
2021/11/21 01:22:03;;;;;;;17.65;11.75;;;;;;;8.23;62.79;100036.13;4470795;32;34050;-50
2021/11/21 01:24:31;;;;;;;17.73;11.95;;;;;;;8.32;62.39;100031.09;4484975;32;35659;-50
2021/11/21 01:26:58;;;;;;;17.98;11.63;;;;;;;8.29;62.30;100017.22;4484949;32;34480;-54
2021/11/21 01:29:26;;;;;;;16.73;11.40;;;;;;;8.19;62.63;100019.69;4485096;32;33693;-51
2021/11/21 01:31:53;;;;;;;18.10;11.65;;;;;;;8.32;62.34;100023.31;4470731;32;33951;-51
2021/11/21 01:34:21;;;;;;;20.83;11.50;;;;;;;8.26;62.56;100015.47;4470872;32;34851;-50
2021/11/21 01:36:49;;;;;;;18.87;11.93;;;;;;;8.35;62.08;100015.59;4457787;32;35081;-51
2021/11/21 01:39:16;;;;;;;17.73;11.35;;;;;;;8.36;62.12;100006.09;4484708;32;33278;-53
2021/11/21 01:41:44;;;;;;;17.17;12.27;;;;;;;8.35;62.13;100010.41;4470685;32;33981;-53
2021/11/21 01:44:14;;;;;;;17.75;11.45;;;;;;;8.27;62.23;100004.28;4484733;32;34909;-49
2021/11/21 01:46:42;;;;;;;19.42;11.82;;;;;;;8.23;62.62;100002.44;4484777;32;35903;-53
2021/11/21 01:49:10;;;;;;;15.90;11.32;;;;;;;8.22;62.56;100000.72;4484652;32;34303;-50
2021/11/21 01:51:37;;;;;;;18.23;12.43;;;;;;;8.23;62.67;99999.84;4484647;32;34018;-49
2021/11/21 01:54:06;;;;;;;17.87;11.50;;;;;;;7.98;63.17;99990.03;4484606;32;35823;-54
2021/11/21 01:56:35;;;;;;;20.58;12.37;;;;;;;8.23;62.43;99996.38;4485052;32;34132;-53
2021/11/21 01:59:03;;;;;;;15.73;10.55;;;;;;;7.98;63.11;99993.50;4470537;32;33525;-53
2021/11/21 02:01:30;;;;;;;18.02;12.00;;;;;;;8.15;62.69;99991.13;4484540;32;34569;-52
2021/11/21 02:03:59;;;;;;;16.15;10.75;;;;;;;8.21;62.40;99991.19;4470463;32;35277;-51
2021/11/21 02:06:26;;;;;;;18.20;11.43;;;;;;;8.36;61.65;99991.41;4484379;32;35255;-54
2021/11/21 02:08:58;;;;;;;17.73;11.50;;;;;;;8.30;61.60;99983.56;4484433;32;33377;-50
2021/11/21 02:11:27;;;;;;;16.95;10.65;;;;;;;8.26;61.42;99978.28;4484455;32;35218;-54
2021/11/21 02:13:54;;;;;;;17.00;10.98;;;;;;;8.15;61.41;99973.84;4484173;32;34718;-50
2021/11/21 02:16:25;;;;;;;18.17;11.05;;;;;;;8.18;61.08;99975.59;4484252;32;34360;-50
2021/11/21 02:18:52;;;;;;;15.90;10.73;;;;;;;8.04;61.21;99962.47;4484507;32;34095;-49
2021/11/21 02:21:21;;;;;;;16.83;10.60;;;;;;;8.03;61.21;99962.47;4484190;32;34528;-56
2021/11/21 02:23:50;;;;;;;15.23;10.43;;;;;;;7.98;61.24;99953.78;4482937;32;34746;-50
2021/11/21 02:26:18;;;;;;;18.23;11.70;;;;;;;8.05;60.94;99947.81;4483992;32;34378;-52
2021/11/21 02:28:48;;;;;;;16.95;10.73;;;;;;;8.04;60.98;99939.19;4483981;32;33477;-49
2021/11/21 02:31:16;;;;;;;17.25;9.52;;;;;;;8.01;60.81;99943.47;4483905;32;33857;-51
2021/11/21 02:33:49;;;;;;;15.50;10.80;;;;;;;8.05;60.84;99940.94;4483817;32;34626;-51
2021/11/21 02:36:16;;;;;;;21.02;10.52;;;;;;;7.98;60.88;99938.25;4484088;32;34864;-50
2021/11/21 02:38:45;;;;;;;16.50;10.60;;;;;;;7.88;60.92;99938.97;4483690;32;34389;-53
2021/11/21 02:41:13;;;;;;;16.10;10.50;;;;;;;7.76;60.97;99925.84;4483575;32;33939;-50
2021/11/21 02:43:43;;;;;;;15.98;10.60;;;;;;;7.89;60.38;99928.62;4483664;32;35364;-55
2021/11/21 02:46:12;;;;;;;19.00;11.10;;;;;;;7.73;60.55;99928.41;4483647;32;34389;-50
2021/11/21 02:48:40;;;;;;;16.17;10.02;;;;;;;7.65;60.36;99925.75;4483875;32;34663;-51
2021/11/21 02:51:09;;;;;;;15.80;10.23;;;;;;;7.76;59.97;99923.28;4483832;32;33868;-53
2021/11/21 02:53:38;;;;;;;15.68;10.65;;;;;;;7.65;60.06;99909.31;4483454;32;34822;-53
2021/11/21 02:56:09;;;;;;;15.15;10.02;;;;;;;7.57;60.14;99914.41;4483418;32;34614;-50
2021/11/21 02:58:38;;;;;;;16.70;10.18;;;;;;;7.62;60.01;99917.03;4469678;32;34336;-54
2021/11/21 03:01:13;;;;;;;15.93;10.57;;;;;;;7.44;60.44;99917.69;4469514;32;33744;-52
2021/11/21 03:03:41;;;;;;;17.15;11.75;;;;;;;7.56;60.08;99914.38;4483581;32;34988;-50
2021/11/21 03:06:09;;;;;;;18.80;10.90;;;;;;;7.43;60.03;99905.56;4483334;32;35322;-52
2021/11/21 03:08:37;;;;;;;15.07;10.10;;;;;;;7.21;60.35;99911.28;4469191;32;34229;-54
2021/11/21 03:11:17;;;;;;;18.75;11.73;;;;;;;7.29;60.09;99912.28;4469046;32;33622;-50
2021/11/21 03:13:45;;;;;;;16.83;10.65;;;;;;;7.24;60.13;99903.56;4469163;32;35098;-52
2021/11/21 03:16:13;;;;;;;19.52;10.63;;;;;;;7.19;60.15;99905.22;4483266;32;35158;-53
2021/11/21 03:18:40;;;;;;;15.23;10.23;;;;;;;7.18;60.13;99904.34;4483029;32;34221;-50
2021/11/21 03:21:08;;;;;;;15.32;10.05;;;;;;;7.03;60.71;99898.97;4468942;32;34779;-53
2021/11/21 03:23:35;;;;;;;17.05;10.55;;;;;;;7.10;60.46;99893.03;4482933;32;34703;-53
2021/11/21 03:26:03;;;;;;;15.70;10.18;;;;;;;7.14;60.23;99887.03;4482932;32;35078;-53
2021/11/21 03:28:32;;;;;;;17.05;10.63;;;;;;;7.08;60.36;99902.50;4482921;32;33772;-51
2021/11/21 03:30:59;;;;;;;16.15;10.25;;;;;;;7.08;60.29;99896.44;4468956;32;34380;-54
2021/11/21 03:33:27;;;;;;;16.40;10.20;;;;;;;7.01;60.37;99894.59;4482709;32;35392;-50
2021/11/21 03:35:55;;;;;;;14.73;10.20;;;;;;;6.85;60.63;99893.47;4482477;32;35138;-51
2021/11/21 03:38:22;;;;;;;16.05;10.02;;;;;;;6.92;60.40;99899.63;4482812;32;33277;-50
2021/11/21 03:40:50;;;;;;;16.50;10.35;;;;;;;6.98;60.42;99897.13;4482546;32;34540;-50
2021/11/21 03:43:18;;;;;;;14.73;10.00;;;;;;;6.82;60.65;99886.53;4482750;32;34934;-52
2021/11/21 03:45:46;;;;;;;15.68;10.73;;;;;;;6.77;60.90;99879.59;4482752;32;34800;-50
2021/11/21 03:48:14;;;;;;;14.38;10.15;;;;;;;6.77;61.02;99877.00;4482799;32;34821;-50
2021/11/21 03:50:41;;;;;;;15.95;9.95;;;;;;;6.73;60.80;99880.34;4468446;32;33950;-52
2021/11/21 03:53:09;;;;;;;17.12;10.18;;;;;;;6.74;60.42;99879.53;4482482;32;35672;-56
2021/11/21 03:55:36;;;;;;;16.37;10.18;;;;;;;6.76;60.46;99870.94;4468100;32;34025;-51
2021/11/21 03:58:04;;;;;;;16.23;10.07;;;;;;;6.71;60.40;99864.84;4482397;32;34192;-51
2021/11/21 04:00:32;;;;;;;14.50;9.10;;;;;;;6.77;59.95;99862.31;4482470;32;34540;-51
2021/11/21 04:03:00;;;;;;;16.83;9.95;;;;;;;6.59;60.08;99859.47;4482203;32;34967;-53
2021/11/21 04:05:28;;;;;;;16.85;9.70;;;;;;;6.53;60.10;99856.78;4482464;32;34394;-51
2021/11/21 04:07:55;;;;;;;12.63;9.35;;;;;;;6.63;59.98;99856.06;4482185;32;34202;-54
2021/11/21 04:10:23;;;;;;;16.48;9.48;;;;;;;6.53;60.37;99859.38;4482035;32;33906;-54
2021/11/21 04:12:51;;;;;;;14.45;9.18;;;;;;;6.58;59.98;99852.56;4481946;32;35877;-55
2021/11/21 04:15:18;;;;;;;14.43;9.38;;;;;;;6.53;60.02;99850.75;4481978;32;34521;-52
2021/11/21 04:17:46;;;;;;;14.00;8.95;;;;;;;6.48;59.88;99849.78;4467973;32;34639;-54
2021/11/21 04:20:14;;;;;;;13.48;9.05;;;;;;;6.42;60.09;99841.97;4481992;32;34840;-50
2021/11/21 04:22:41;;;;;;;15.05;10.05;;;;;;;6.42;60.08;99852.28;4481713;32;34990;-49
2021/11/21 04:25:09;;;;;;;14.48;9.85;;;;;;;6.49;59.81;99841.22;4467957;32;34396;-52
2021/11/21 04:27:38;;;;;;;13.82;8.80;;;;;;;6.29;60.00;99838.28;4481390;32;34738;-54
2021/11/21 04:30:08;;;;;;;13.73;9.13;;;;;;;6.31;59.92;99843.47;4454578;32;33364;-56
2021/11/21 04:32:37;;;;;;;13.77;9.35;;;;;;;6.30;60.00;99836.56;4466882;32;35410;-55
2021/11/21 04:35:10;;;;;;;14.63;9.55;;;;;;;6.26;60.39;99842.50;4480950;32;34430;-56
2021/11/21 04:37:38;;;;;;;13.00;8.25;;;;;;;6.29;60.25;99842.56;4481172;32;34578;-49
2021/11/21 04:40:07;;;;;;;17.42;9.35;;;;;;;6.22;60.10;99840.72;4481134;32;34530;-51
2021/11/21 04:42:35;;;;;;;13.48;8.65;;;;;;;6.32;59.99;99842.63;4480954;32;34843;-53
2021/11/21 04:45:04;;;;;;;13.70;8.60;;;;;;;6.25;60.14;99835.63;4480913;32;35359;-53
2021/11/21 04:47:31;;;;;;;11.20;7.90;;;;;;;6.22;60.24;99833.84;4482265;32;33539;-51
2021/11/21 04:49:59;;;;;;;13.25;8.35;;;;;;;6.22;60.08;99831.28;4483375;32;34015;-52
2021/11/21 04:52:27;;;;;;;13.38;8.95;;;;;;;6.05;60.35;99828.38;4483429;32;34701;-51
2021/11/21 04:54:54;;;;;;;15.65;9.05;;;;;;;6.18;60.11;99828.63;4483144;32;34215;-55
2021/11/21 04:57:22;;;;;;;14.68;8.93;;;;;;;6.18;60.03;99823.44;4483263;32;35020;-52
2021/11/21 04:59:49;;;;;;;13.65;8.30;;;;;;;6.20;59.84;99824.34;4483364;32;33753;-53
2021/11/21 05:02:17;;;;;;;13.40;8.25;;;;;;;6.20;59.95;99824.34;4469446;32;35339;-52
2021/11/21 05:04:45;;;;;;;13.65;8.65;;;;;;;6.07;60.27;99815.50;4483451;32;34305;-52
2021/11/21 05:07:12;;;;;;;12.55;8.18;;;;;;;6.14;60.03;99814.75;4483773;32;34110;-54
2021/11/21 05:09:40;;;;;;;15.07;8.43;;;;;;;6.01;60.21;99805.91;4483621;32;34887;-55
2021/11/21 05:12:08;;;;;;;13.30;8.63;;;;;;;6.03;60.01;99808.56;4483431;32;35124;-52
2021/11/21 05:14:36;;;;;;;12.25;8.05;;;;;;;6.01;59.97;99800.75;4483587;32;34941;-49
2021/11/21 05:17:03;;;;;;;12.93;8.07;;;;;;;6.05;59.78;99799.12;4483764;32;33467;-52
2021/11/21 05:19:31;;;;;;;14.52;9.02;;;;;;;5.99;59.89;99801.59;4483816;32;33912;-50
2021/11/21 05:21:59;;;;;;;15.13;8.70;;;;;;;5.99;59.84;99802.44;4483115;32;35556;-50
2021/11/21 05:24:27;;;;;;;14.05;8.30;;;;;;;5.98;59.81;99792.97;4483588;32;34575;-52
2021/11/21 05:26:55;;;;;;;16.98;9.68;;;;;;;5.91;59.87;99796.28;4483317;32;33364;-52
2021/11/21 05:29:23;;;;;;;14.55;9.35;;;;;;;5.95;59.84;99790.34;4483140;32;34308;-51
2021/11/21 05:31:50;;;;;;;13.00;8.55;;;;;;;5.81;60.02;99786.59;4468978;32;36164;-51
2021/11/21 05:34:17;;;;;;;16.20;11.27;;;;;;;5.81;59.84;99785.72;4483223;32;34218;-51
2021/11/21 05:36:45;;;;;;;17.80;11.90;;;;;;;5.72;60.08;99783.84;4482987;32;33913;-54
2021/11/21 05:39:13;;;;;;;14.05;9.48;;;;;;;5.71;60.38;99784.69;4483047;32;33917;-50
2021/11/21 05:41:41;;;;;;;16.40;10.57;;;;;;;5.84;60.11;99778.97;4468868;32;35025;-50
2021/11/21 05:44:08;;;;;;;14.02;9.77;;;;;;;5.83;60.08;99774.59;4455852;32;33674;-52
2021/11/21 05:46:36;;;;;;;17.77;10.45;;;;;;;5.61;60.79;99784.50;4483110;32;33829;-53
2021/11/21 05:49:03;;;;;;;15.63;10.30;;;;;;;5.72;60.73;99773.53;4483134;32;34812;-51
2021/11/21 05:51:31;;;;;;;19.10;11.60;;;;;;;5.70;60.93;99775.22;4482935;32;35131;-53
2021/11/21 05:53:58;;;;;;;17.90;12.02;;;;;;;5.77;61.14;99774.50;4482804;32;35024;-53
2021/11/21 05:56:26;;;;;;;19.83;11.70;;;;;;;5.76;61.61;99775.31;4482787;32;33509;-50
2021/11/21 05:58:54;;;;;;;18.62;12.07;;;;;;;5.97;61.19;99773.16;4482610;32;34629;-53
2021/11/21 06:01:22;;;;;;;23.10;12.20;;;;;;;5.96;61.30;99779.19;4482532;32;35835;-54
2021/11/21 06:03:54;;;;;;;21.30;12.95;;;;;;;6.02;61.34;99781.84;4482553;32;34458;-51
2021/11/21 06:06:22;;;;;;;23.38;12.25;;;;;;;5.96;61.51;99783.47;4482779;32;34535;-54
2021/11/21 06:08:49;;;;;;;20.65;12.05;;;;;;;5.91;61.64;99788.53;4482858;32;34724;-51
2021/11/21 06:11:18;;;;;;;22.98;12.18;;;;;;;5.79;62.16;99782.25;4483319;32;34745;-53
2021/11/21 06:13:45;;;;;;;22.02;12.68;;;;;;;5.91;62.06;99788.53;4484009;32;34444;-55
2021/11/21 06:16:13;;;;;;;25.58;13.90;;;;;;;5.96;62.03;99786.91;4483828;32;34314;-53
2021/11/21 06:18:40;;;;;;;26.15;14.10;;;;;;;6.01;62.10;99780.09;4483687;32;34358;-51
2021/11/21 06:21:08;;;;;;;24.20;13.50;;;;;;;6.22;61.51;99781.31;4483582;31;34610;-48
2021/11/21 06:23:36;;;;;;;23.95;12.98;;;;;;;6.01;61.89;99787.84;4483506;32;34555;-50
2021/11/21 06:26:04;;;;;;;37.75;18.10;;;;;;;5.88;62.77;99777.28;4483547;32;34568;-49
2021/11/21 06:28:32;;;;;;;33.35;16.87;;;;;;;5.97;62.71;99783.47;4484429;32;34276;-50
2021/11/21 06:31:00;;;;;;;42.13;14.93;;;;;;;6.20;62.34;99777.84;4484391;32;35740;-52
2021/11/21 06:33:27;;;;;;;29.52;13.15;;;;;;;6.04;63.19;99785.31;4484245;32;34315;-55
2021/11/21 06:35:55;;;;;;;37.20;14.82;;;;;;;6.35;62.82;99778.97;4484362;32;33465;-52
2021/11/21 06:38:22;;;;;;;40.83;20.05;;;;;;;6.28;63.10;99771.09;4482664;32;34424;-51
2021/11/21 06:40:50;;;;;;;43.22;22.83;;;;;;;6.43;62.86;99774.81;4483101;32;36344;-50
2021/11/21 06:43:18;;;;;;;46.65;22.40;;;;;;;6.47;62.54;99776.56;4482811;32;35078;-53
2021/11/21 06:45:45;;;;;;;42.85;22.00;;;;;;;6.44;61.81;99776.53;4483033;32;34528;-54
2021/11/21 06:48:14;;;;;;;38.22;19.58;;;;;;;6.44;62.48;99770.50;4483403;32;34158;-55
2021/11/21 06:50:42;;;;;;;37.88;19.25;;;;;;;6.47;62.64;99775.69;4483446;32;35492;-53
2021/11/21 06:53:10;;;;;;;47.03;19.25;;;;;;;6.44;62.91;99775.69;4469737;32;35009;-50
2021/11/21 06:55:37;;;;;;;57.60;18.40;;;;;;;6.39;63.62;99770.44;4469173;32;33781;-53
2021/11/21 06:58:05;;;;;;;52.38;13.98;;;;;;;6.50;63.46;99773.16;4483412;32;34213;-54
2021/11/21 07:00:32;;;;;;;25.20;11.23;;;;;;;6.59;63.64;99771.59;4483199;32;34803;-50
2021/11/21 07:03:00;;;;;;;40.58;12.95;;;;;;;6.61;63.49;99771.59;4483625;32;34465;-55
2021/11/21 07:05:28;;;;;;;37.90;12.63;;;;;;;6.65;63.67;99776.00;4483504;32;34212;-50
2021/11/21 07:07:56;;;;;;;49.38;11.77;;;;;;;6.48;64.28;99772.28;4469489;32;33709;-52
2021/11/21 07:10:24;;;;;;;42.65;13.00;;;;;;;6.71;64.06;99765.75;4482761;32;35856;-54
2021/11/21 07:12:51;;;;;;;40.40;13.68;;;;;;;6.69;64.23;99777.78;4483337;32;34384;-56
2021/11/21 07:15:19;;;;;;;29.70;13.62;;;;;;;6.78;64.08;99773.59;4483372;32;34904;-54
2021/11/21 07:17:51;;;;;;;42.13;12.43;;;;;;;6.82;64.06;99770.22;4483083;32;33641;-52
2021/11/21 07:20:19;;;;;;;28.38;12.25;;;;;;;6.96;63.96;99775.59;4483547;32;35247;-54
2021/11/21 07:22:52;;;;;;;26.35;12.57;;;;;;;6.98;64.12;99773.03;4483298;32;35070;-50
2021/11/21 07:25:24;;;;;;;30.05;12.05;;;;;;;6.91;64.33;99768.62;4482513;32;34317;-51
2021/11/21 07:27:52;;;;;;;20.85;12.40;;;;;;;6.97;64.37;99761.81;4482242;32;34721;-52
2021/11/21 07:30:22;;;;;;;24.40;11.25;;;;;;;7.08;64.12;99757.66;4468628;32;36522;-53
2021/11/21 07:32:51;;;;;;;24.27;12.60;;;;;;;7.12;64.04;99763.72;4468502;32;34310;-54
2021/11/21 07:35:19;;;;;;;23.38;12.90;;;;;;;7.07;64.32;99763.66;4482697;32;33385;-51
2021/11/21 07:37:48;;;;;;;39.15;14.73;;;;;;;7.21;63.31;99753.50;4483764;32;33829;-51
2021/11/21 07:40:16;;;;;;;26.60;15.38;;;;;;;7.27;63.29;99749.25;4483681;32;35214;-51
2021/11/21 07:42:44;;;;;;;24.10;12.98;;;;;;;7.38;62.89;99751.97;4483708;32;34952;-48
2021/11/21 07:45:13;;;;;;;21.33;12.13;;;;;;;7.14;63.41;99757.72;4483381;32;34020;-53
2021/11/21 07:47:40;;;;;;;19.98;11.88;;;;;;;7.47;61.82;99758.13;4484145;32;34671;-53
2021/11/21 07:50:08;;;;;;;19.23;12.52;;;;;;;7.29;62.29;99760.50;4484346;32;34879;-54
2021/11/21 07:52:36;;;;;;;20.40;11.95;;;;;;;7.21;62.81;99753.50;4484095;32;34290;-53
2021/11/21 07:55:04;;;;;;;19.62;13.23;;;;;;;7.16;63.52;99740.50;4483920;32;34259;-51
2021/11/21 07:57:32;;;;;;;16.30;9.55;;;;;;;7.49;62.46;99750.37;4483976;32;34662;-46
2021/11/21 08:00:00;;;;;;;35.05;18.35;;;;;;;7.51;82.13;99749.53;4470000;32;35601;-48
2021/11/21 08:02:30;;;;;;;23.23;12.63;;;;;;;8.27;77.12;99742.56;4483883;32;34978;-47
2021/11/21 08:04:58;;;;;;;19.85;12.57;;;;;;;8.71;65.03;99740.28;4483833;32;34711;-49
2021/11/21 08:07:30;;;;;;;;;;;;;;;8.69;60.69;99737.69;4484176;32;33702;-48
2021/11/21 08:09:59;;;;;;;26.55;14.13;;;;;;;8.45;60.57;99726.28;4469749;32;35867;-47
2021/11/21 08:12:26;;;;;;;22.25;13.98;;;;;;;8.33;61.31;99737.41;4483550;32;34215;-49
2021/11/21 08:14:53;;;;;;;20.58;12.52;;;;;;;8.40;61.64;99728.81;4483595;32;33345;-46
2021/11/21 08:17:21;;;;;;;14.95;10.57;;;;;;;8.38;61.51;99733.13;4469240;32;34646;-48
2021/11/21 08:19:49;;;;;;;16.77;11.32;;;;;;;8.48;60.71;99729.75;4483325;32;34844;-49
2021/11/21 08:22:16;;;;;;;19.48;11.55;;;;;;;8.50;60.57;99732.34;4483036;32;35242;-47
2021/11/21 08:24:45;;;;;;;17.02;10.90;;;;;;;8.47;60.82;99728.00;4485232;32;33328;-49
2021/11/21 08:27:13;;;;;;;16.67;11.77;;;;;;;8.50;60.57;99728.03;4485291;32;33678;-51
2021/11/21 08:29:41;;;;;;;17.80;12.10;;;;;;;8.68;60.08;99728.16;4485505;32;34925;-47
2021/11/21 08:32:09;;;;;;;16.45;11.70;;;;;;;8.73;60.27;99721.28;4470860;32;35071;-51
2021/11/21 08:34:36;;;;;;;17.85;11.65;;;;;;;8.75;60.15;99724.75;4485243;32;32675;-48
2021/11/21 08:37:04;;;;;;;24.30;14.95;;;;;;;8.64;60.71;99721.22;4484692;32;34005;-49
2021/11/21 08:39:33;;;;;;;28.65;18.42;;;;;;;8.63;61.26;99718.59;4469182;32;35256;-50
2021/11/21 08:42:00;;;;;;;33.83;20.35;;;;;;;8.64;61.72;99717.75;4485165;32;34212;-48
2021/11/21 08:44:28;;;;;;;30.27;19.27;;;;;;;8.70;61.40;99710.87;4485108;32;33520;-46
2021/11/21 08:46:56;;;;;;;33.03;19.83;;;;;;;8.76;61.40;99710.06;4485077;32;33750;-49
2021/11/21 08:49:23;;;;;;;32.92;20.73;;;;;;;8.92;60.98;99703.19;4484939;32;34831;-48
2021/11/21 08:51:51;;;;;;;29.92;20.10;;;;;;;8.79;61.58;99716.09;4484960;32;34404;-45
2021/11/21 08:54:19;;;;;;;30.25;20.27;;;;;;;8.80;61.66;99710.06;4485051;32;33507;-48
2021/11/21 08:56:48;;;;;;;26.37;17.37;;;;;;;8.88;61.92;99706.66;4485363;32;34291;-47
2021/11/21 08:59:16;;;;;;;24.33;15.68;;;;;;;8.91;61.89;99698.91;4471354;32;35785;-48
2021/11/21 09:01:44;;;;;;;22.73;15.02;;;;;;;8.96;61.99;99699.78;4485401;32;34649;-48
2021/11/21 09:04:13;;;;;;;22.55;14.93;;;;;;;9.03;61.50;99689.44;4485453;32;33516;-48
2021/11/21 09:06:43;;;;;;;18.95;13.27;;;;;;;8.97;62.27;99688.53;4485519;32;34403;-48
2021/11/21 09:09:11;;;;;;;21.95;14.65;;;;;;;9.22;61.54;99695.56;4458466;32;34163;-50
2021/11/21 09:11:38;;;;;;;20.15;13.75;;;;;;;9.09;62.67;99691.19;4485386;32;35201;-48
2021/11/21 09:14:06;;;;;;;18.42;13.32;;;;;;;9.29;61.97;99684.34;4485074;32;33902;-47
2021/11/21 09:16:34;;;;;;;22.23;14.82;;;;;;;9.40;61.72;99683.50;4471392;32;33883;-47
2021/11/21 09:19:02;;;;;;;20.48;14.15;;;;;;;9.33;62.02;99676.56;4485335;32;34610;-49
2021/11/21 09:21:30;;;;;;;21.60;14.90;;;;;;;9.41;62.50;99682.63;4485384;32;34907;-49
2021/11/21 09:23:58;;;;;;;21.67;14.57;;;;;;;9.67;62.00;99663.66;4471144;32;33398;-46
2021/11/21 09:26:26;;;;;;;20.45;13.48;;;;;;;9.71;61.10;99662.78;4485160;32;34069;-47
2021/11/21 09:28:54;;;;;;;23.60;14.73;;;;;;;9.73;61.53;99672.31;4485268;32;35694;-49
2021/11/21 09:31:21;;;;;;;25.10;15.23;;;;;;;9.90;61.08;99667.13;4485443;32;35208;-47
2021/11/21 09:33:49;;;;;;;23.35;15.05;;;;;;;9.69;61.91;99661.94;4484739;32;33595;-49
2021/11/21 09:36:17;;;;;;;24.40;17.20;;;;;;;9.74;62.56;99671.47;4482468;32;34209;-54
2021/11/21 09:38:45;;;;;;;22.05;15.70;;;;;;;9.82;62.53;99666.25;4468378;32;34850;-50
2021/11/21 09:41:12;;;;;;;24.00;15.35;;;;;;;9.91;61.33;99668.88;4481623;32;35516;-50
2021/11/21 09:43:43;;;;;;;26.27;16.20;;;;;;;9.99;61.96;99660.22;4481892;32;34621;-46
2021/11/21 09:46:11;;;;;;;25.08;17.23;;;;;;;10.08;61.63;99657.59;4481342;32;33800;-52
2021/11/21 09:48:38;;;;;;;28.00;16.98;;;;;;;9.87;61.68;99647.22;4481478;32;35113;-46
2021/11/21 09:51:06;;;;;;;28.02;18.52;;;;;;;9.68;63.25;99650.66;4466949;32;35217;-55
2021/11/21 09:53:34;;;;;;;31.87;20.27;;;;;;;9.72;63.45;99648.97;4466255;32;33930;-53
2021/11/21 09:56:02;;;;;;;30.20;19.12;;;;;;;9.88;63.42;99640.28;4479214;32;34469;-48
2021/11/21 09:58:29;;;;;;;31.85;18.33;;;;;;;10.29;62.31;99640.31;4452659;32;35278;-49
2021/11/21 10:00:57;;;;;;;28.55;18.87;;;;;;;10.22;62.02;99631.66;4481010;32;34556;-47
2021/11/21 10:03:26;;;;;;;27.13;18.95;;;;;;;10.30;nan;99623.81;4478399;32;32562;-49
2021/11/21 10:05:55;;;;;;;29.83;20.15;;;;;;;10.35;61.43;99619.47;4478463;32;34057;-46
2021/11/21 10:08:28;;;;;;;30.65;20.27;;;;;;;10.10;62.50;99622.09;4478228;32;34793;-46
2021/11/21 10:11:03;;;;;;;31.98;21.30;;;;;;;9.96;63.19;99621.22;4477971;32;34633;-51
2021/11/21 10:13:35;;;;;;;31.87;21.52;;;;;;;10.23;63.22;99609.09;4478684;32;33289;-50
2021/11/21 10:16:21;;;;;;;32.97;20.73;;;;;;;10.35;63.26;99609.09;4480365;32;33656;-47
2021/11/21 10:18:52;;;;;;;32.22;21.35;;;;;;;10.36;63.61;99603.03;4482506;32;34885;-47
2021/11/21 10:21:31;;;;;;;32.20;20.17;;;;;;;10.23;64.55;99603.91;4480504;31;34481;-47
2021/11/21 10:24:23;;;;;;;31.85;20.65;;;;;;;10.50;63.66;99598.66;4482165;32;34740;-50
2021/11/21 10:27:03;;;;;;;35.17;21.80;;;;;;;10.35;64.16;99596.97;4481179;32;34435;-53
2021/11/21 10:29:35;;;;;;;32.70;20.02;;;;;;;10.46;63.90;99591.75;4483976;32;35960;-49
2021/11/21 10:32:14;;;;;;;33.00;20.73;;;;;;;10.41;63.70;99591.72;4484407;32;34670;-51
2021/11/21 10:35:12;;;;;;;28.65;19.48;;;;;;;10.50;64.03;99588.25;4483653;32;33654;-48
2021/11/21 10:37:41;;;;;;;32.13;20.27;;;;;;;10.59;63.84;99583.88;4484797;32;34313;-49
2021/11/21 10:40:18;;;;;;;35.58;20.90;;;;;;;10.62;63.72;99583.00;4470420;32;34758;-48
2021/11/21 10:42:48;;;;;;;34.63;20.60;;;;;;;10.79;62.78;99582.03;4484111;32;34218;-46
2021/11/21 10:45:26;;;;;;;42.30;21.48;;;;;;;10.94;61.31;99573.31;4482171;32;33582;-48
2021/11/21 10:47:58;;;;;;;30.65;19.50;;;;;;;11.01;62.57;99576.72;4470114;32;34393;-53
2021/11/21 10:50:29;;;;;;;27.48;19.02;;;;;;;11.04;63.86;99569.78;4484347;32;36154;-48
2021/11/21 10:53:01;;;;;;;31.67;19.60;;;;;;;11.22;61.56;99572.28;4484716;32;34560;-48
2021/11/21 10:55:28;;;;;;;28.87;19.08;;;;;;;11.47;67.04;99560.81;4483933;32;33870;-48
2021/11/21 10:58:15;;;;;;;32.78;19.73;;;;;;;11.79;59.73;99559.75;4483507;32;34574;-47
2021/11/21 11:00:54;;;;;;;31.80;19.45;;;;;;;11.63;65.69;99553.75;4483882;32;35702;-47
2021/11/21 11:03:24;;;;;;;28.17;19.42;;;;;;;11.71;61.41;99536.34;4482477;32;34067;-50
2021/11/21 11:05:53;;;;;;;29.63;19.75;;;;;;;11.86;58.62;99540.56;4470229;32;33913;-48
2021/11/21 11:08:28;;;;;;;27.60;18.37;;;;;;;11.80;58.41;99524.97;4481473;32;34458;-49
2021/11/21 11:10:58;;;;;;;25.92;17.62;;;;;;;11.76;59.00;99529.34;4481357;32;34837;-53
2021/11/21 11:13:27;;;;;;;29.67;20.92;;;;;;;11.93;58.64;99529.19;4480733;32;35557;-46
2021/11/21 11:15:56;;;;;;;30.77;18.90;;;;;;;12.00;58.18;99523.03;4481033;32;33457;-48
2021/11/21 11:18:26;;;;;;;27.98;17.55;;;;;;;11.78;58.48;99521.53;4482014;32;35091;-46
2021/11/21 11:20:57;;;;;;;29.02;19.33;;;;;;;11.87;58.64;99516.22;4480669;31;34781;-50
2021/11/21 11:23:25;;;;;;;25.27;17.95;;;;;;;11.65;59.46;99510.31;4481195;32;34989;-50
2021/11/21 11:25:57;;;;;;;29.12;18.62;;;;;;;11.76;59.49;99503.31;4467246;32;34011;-48
2021/11/21 11:28:39;;;;;;;25.77;17.25;;;;;;;12.02;58.69;99510.84;4482002;32;34319;-48
2021/11/21 11:31:27;;;;;;;27.45;18.05;;;;;;;12.10;58.46;99490.75;4454513;32;34366;-50
2021/11/21 11:33:58;;;;;;;25.83;18.33;;;;;;;12.13;58.33;99490.75;4467955;32;34922;-47